Mattapoisett, Massachusetts
Current Conditions -  °F | °C
As of 11:53 AM on Sunday 21 Dec 2014 (Local Time) from KEWB Reporting Station
Light Rain Light Rain  
Wind Chill: 32°   Ceiling: 400
Heat Index: 37°   Visibility: 8mi
Dew Point: 36°   Wind: 7mph
Humidity: 96%   Direction: NA
Pressure: 30.26"   Gusts: NA
Location:  41.66°N, 70.82°W
Report Text: KEWB 211653Z VRB06KT 8SM -RA OVC004 03/02 A3026 RMK AO2 RAB24 SLP249 P0000 T00280022
Loading
Personal Weather Stations






























Interactive Weather Map New forecast layout! Learn more

10-Day Weather Forecast

Advertisements
Track Severe Weather on mobile